createdAt,value
2019-03-29T09:27:08.946Z,25.7523
2019-03-29T09:27:39.592Z,25.7220
2019-03-29T09:28:10.581Z,25.7220
2019-03-29T09:28:41.602Z,25.7220
2019-03-29T09:29:12.579Z,25.6918
2019-03-29T09:29:43.589Z,25.6213
2019-03-29T09:30:14.591Z,25.3998
2019-03-29T09:30:45.572Z,25.2084
2019-03-29T09:31:16.617Z,25.0372
2019-03-29T09:31:47.657Z,24.9063
2019-03-29T09:32:18.595Z,24.8358
2019-03-29T09:32:51.558Z,24.7351
2019-03-29T09:33:22.623Z,24.6848
2019-03-29T09:33:53.572Z,24.6344
2019-03-29T09:34:24.591Z,24.5538
2019-03-29T09:34:55.587Z,24.5135
2019-03-29T09:35:26.596Z,24.6545
2019-03-29T09:35:57.585Z,24.7653
2019-03-29T09:36:28.596Z,24.8560
2019-03-29T09:37:00.128Z,24.9869
2019-03-29T09:37:31.603Z,25.0372
2019-03-29T09:38:02.569Z,24.9567
2019-03-29T09:38:33.601Z,25.0574
2019-03-29T09:39:04.583Z,25.0070
2019-03-29T09:39:35.590Z,25.0674
2019-03-29T09:40:06.575Z,25.1077
2019-03-29T09:40:37.640Z,25.1279
2019-03-29T09:41:08.605Z,25.0574
2019-03-29T09:41:39.593Z,25.0574
2019-03-29T09:42:10.590Z,25.0674
2019-03-29T09:42:41.604Z,25.0775
2019-03-29T09:43:12.563Z,25.1279
2019-03-29T09:43:43.599Z,25.1682
2019-03-29T09:44:14.595Z,25.2487
2019-03-29T09:44:45.575Z,25.2487
2019-03-29T09:45:16.574Z,25.3192
2019-03-29T09:45:47.595Z,25.3998
2019-03-29T09:46:18.584Z,25.4300
2019-03-29T09:46:49.582Z,25.5307
2019-03-29T09:47:20.573Z,25.6012
2019-03-29T09:47:51.616Z,25.6213
2019-03-29T09:48:22.585Z,25.6012
2019-03-29T09:48:53.605Z,25.5307
2019-03-29T09:49:24.564Z,25.5911
2019-03-29T09:49:55.626Z,25.8026
2019-03-29T09:50:26.568Z,25.9637
2019-03-29T09:50:57.600Z,25.9033
2019-03-29T09:51:29.286Z,25.7825
2019-03-29T09:52:00.579Z,25.7321
2019-03-29T09:52:31.598Z,25.6516
2019-03-29T09:53:02.445Z,25.6918
2019-03-29T09:56:03.306Z,19.2365
2019-03-29T09:56:49.456Z,19.1055
2019-03-29T09:57:20.318Z,18.8034
2019-03-29T09:57:51.786Z,18.2898
2019-03-29T09:58:24.179Z,17.5949
2019-03-29T09:58:56.255Z,17.5748
2019-03-29T09:59:28.252Z,16.9705
2019-03-29T10:00:00.396Z,16.2756
2019-03-29T10:00:32.189Z,15.5807
2019-03-29T10:35:35.002Z,24.1711
2019-03-29T10:36:05.735Z,24.1812
2019-03-29T10:36:36.765Z,24.2114
2019-03-29T10:38:57.623Z,24.4733
2019-03-29T10:39:28.310Z,24.5740
2019-03-29T10:40:23.607Z,24.6545
2019-03-29T10:53:39.947Z,24.6848
2019-03-29T10:54:10.683Z,24.6545
2019-03-29T10:54:41.708Z,24.6344
2019-03-29T10:55:12.683Z,24.6344
2019-03-29T10:55:43.697Z,24.6143
2019-03-29T10:56:14.681Z,24.6042
2019-03-29T10:56:45.721Z,24.6344
2019-03-29T10:57:16.715Z,24.6344
2019-03-29T10:57:47.703Z,24.6646
2019-03-29T10:58:18.698Z,24.6848
2019-03-29T10:58:58.942Z,24.7049
2019-03-29T10:59:31.756Z,24.7351
2019-03-29T11:00:04.730Z,24.7653
2019-03-29T11:00:37.761Z,24.7955
2019-03-29T11:01:10.734Z,24.8358
2019-03-29T11:01:55.598Z,24.8560
2019-03-29T11:02:11.281Z,24.8560
2019-03-29T11:02:27.292Z,24.8862
2019-03-29T11:02:43.269Z,24.8862
2019-03-29T11:02:59.285Z,24.9063
2019-03-29T11:03:15.320Z,24.9164
2019-03-29T11:03:31.323Z,24.9063
2019-03-29T11:03:47.250Z,24.9063
2019-03-29T11:04:03.293Z,24.9063
2019-03-29T11:04:19.252Z,24.9164
2019-03-29T11:04:35.294Z,24.9265
2019-03-29T11:04:51.271Z,24.9567
2019-03-29T11:05:07.274Z,24.9768
2019-03-29T11:17:22.140Z,24.8761
2019-03-29T11:17:37.871Z,24.8459
2019-03-29T11:17:53.867Z,24.8459
2019-03-29T11:18:09.872Z,24.8459
2019-03-29T11:20:44.255Z,24.8056
2019-03-29T12:32:31.878Z,24.0503
2019-03-29T12:32:47.619Z,24.0503
2019-03-29T12:33:03.623Z,24.0503
2019-03-29T12:33:19.618Z,24.0503
2019-03-29T12:33:35.646Z,24.0604
2019-03-29T12:33:51.622Z,24.0604
2019-03-29T12:34:07.630Z,24.0503
